createdAt,value
2022-08-29T01:04:46.758Z,96911.41
2022-08-29T01:09:42.252Z,96915.09
2022-08-29T01:20:25.401Z,96919.00
2022-08-29T01:25:23.830Z,96919.78
2022-08-29T01:30:15.583Z,96916.84
2022-08-29T01:45:21.104Z,96932.19
2022-08-29T01:50:15.234Z,96927.47
2022-08-29T01:55:07.550Z,96925.56
2022-08-29T02:00:01.140Z,96930.31
2022-08-29T02:04:53.424Z,96922.53
2022-08-29T02:20:19.366Z,96932.66
2022-08-29T02:25:30.509Z,96929.41
2022-08-29T02:30:23.159Z,96934.41
2022-08-29T02:40:31.800Z,96939.31
2022-08-29T02:45:24.840Z,96939.06
2022-08-29T02:50:17.551Z,96938.25
2022-08-29T03:05:58.753Z,96939.09
2022-08-29T03:10:50.483Z,96932.44
2022-08-29T03:15:42.206Z,96932.97
2022-08-29T03:20:37.521Z,96936.63
2022-08-29T03:25:29.628Z,96934.75
2022-08-29T03:30:24.046Z,96934.22
2022-08-29T03:35:18.035Z,96934.72
2022-08-29T03:40:10.653Z,96931.97
2022-08-29T03:45:08.624Z,96934.09
2022-08-29T06:08:18.548Z,96994.16
2022-08-29T06:23:23.741Z,96999.41
2022-08-29T06:28:24.062Z,97008.34
2022-08-29T06:33:16.074Z,97007.13
2022-08-29T06:38:13.314Z,97006.63
2022-08-29T06:43:05.801Z,97008.53
2022-08-29T06:47:57.642Z,97007.75
2022-08-29T06:52:49.432Z,97009.97
2022-08-29T06:57:44.730Z,97007.56
2022-08-29T07:02:36.633Z,97006.84
2022-08-29T07:07:28.872Z,97007.53
2022-08-29T07:12:24.988Z,97009.53
2022-08-29T07:17:25.851Z,97008.03
2022-08-29T07:22:18.004Z,97007.53
2022-08-29T07:27:12.625Z,97003.56
2022-08-29T07:32:04.874Z,97011.81
2022-08-29T07:36:56.659Z,97010.47
2022-08-29T07:41:49.092Z,97013.56
2022-08-29T07:46:41.877Z,97022.47
2022-08-29T07:51:34.904Z,97015.47
2022-08-29T07:56:37.626Z,97008.16
2022-08-29T08:01:29.718Z,97009.56
2022-08-29T08:06:24.919Z,97006.25
2022-08-29T08:11:21.751Z,97009.41
2022-08-29T08:16:18.841Z,97013.09
2022-08-29T08:21:12.129Z,97018.84
2022-08-29T08:26:04.373Z,97009.06
2022-08-29T08:31:01.190Z,97017.28
2022-08-29T08:35:57.192Z,97016.13
2022-08-29T08:41:04.784Z,97023.88
2022-08-29T08:45:58.417Z,97021.31
2022-08-29T08:51:13.954Z,97034.69
2022-08-29T08:56:33.611Z,97030.91
2022-08-29T09:01:37.168Z,97034.06
2022-08-29T09:06:31.673Z,97023.41
2022-08-29T13:41:36.060Z,96921.47
2022-08-29T13:51:38.961Z,96927.78
2022-08-29T14:22:13.404Z,96916.44
2022-08-29T14:42:27.242Z,96880.53
2022-08-29T14:47:21.301Z,96878.81
2022-08-29T15:02:30.960Z,96876.69
2022-08-29T15:27:58.140Z,96870.63
2022-08-29T15:38:10.696Z,96861.97
2022-08-29T15:48:11.541Z,96857.97
2022-08-29T15:53:04.700Z,96856.25
2022-08-29T16:18:29.280Z,96838.59
2022-08-29T16:23:21.899Z,96825.28
2022-08-29T16:38:29.088Z,96823.16
2022-08-29T16:59:06.167Z,96826.75
2022-08-29T17:19:33.160Z,96821.22
2022-08-29T17:24:26.610Z,96825.19
2022-08-29T17:29:19.836Z,96828.16
2022-08-29T17:49:36.627Z,96841.94
2022-08-29T17:54:29.229Z,96847.59
2022-08-29T17:59:24.597Z,96845.44
2022-08-29T18:04:18.111Z,96849.69
2022-08-29T18:09:11.003Z,96851.78
2022-08-29T18:14:02.817Z,96853.47
2022-08-29T18:34:16.206Z,96873.63
2022-08-29T18:39:10.859Z,96875.28
2022-08-29T18:44:08.690Z,96878.66
2022-08-29T18:49:02.325Z,96888.97
2022-08-29T18:53:55.329Z,96890.44
2022-08-29T18:58:47.909Z,96892.44
2022-08-29T19:03:47.272Z,96902.34
2022-08-29T19:08:43.905Z,96901.66
2022-08-29T19:13:37.813Z,96900.94
2022-08-29T19:23:44.581Z,96912.28
2022-08-29T19:28:41.335Z,96908.56
2022-08-29T19:33:36.989Z,96915.28
2022-08-29T19:38:32.445Z,96912.03
2022-08-29T19:43:35.733Z,96920.19
2022-08-29T19:48:29.168Z,96934.16
2022-08-29T19:53:26.257Z,96927.41
2022-08-29T19:58:20.971Z,96934.84
2022-08-29T20:03:15.237Z,96928.44
2022-08-29T20:08:10.755Z,96930.81
2022-08-29T20:18:19.643Z,96931.06
2022-08-29T20:23:14.855Z,96928.56
2022-08-29T20:38:20.841Z,96933.56
2022-08-29T20:53:40.083Z,96945.44
2022-08-29T20:58:33.462Z,96946.13
2022-08-29T21:03:44.706Z,96946.03
2022-08-29T21:08:39.283Z,96942.72
2022-08-29T21:13:41.394Z,96947.06
2022-08-29T21:18:37.533Z,96951.59
2022-08-29T21:23:29.682Z,96937.72
2022-08-29T21:28:25.126Z,96949.28
2022-08-29T21:33:19.236Z,96950.16
2022-08-29T21:38:13.266Z,96962.78
2022-08-29T21:43:07.419Z,96947.91
2022-08-29T21:48:00.333Z,96952.72
2022-08-29T21:52:53.808Z,96959.16
2022-08-29T22:08:14.215Z,96957.19
2022-08-29T22:13:10.425Z,96951.69
2022-08-29T22:18:06.718Z,96955.16
2022-08-29T22:28:13.562Z,96948.56
2022-08-29T22:33:08.755Z,96943.84
2022-08-29T22:38:05.662Z,96943.53
2022-08-29T22:42:58.081Z,96943.84
2022-08-29T22:47:53.525Z,96953.66
2022-08-29T22:57:53.432Z,96946.28
2022-08-29T23:02:47.675Z,96950.53
2022-08-29T23:07:41.118Z,96953.75
2022-08-29T23:28:21.726Z,96958.56
2022-08-29T23:38:27.647Z,96953.25
2022-08-29T23:48:29.343Z,96968.94
2022-08-29T23:58:29.819Z,96969.16
